Flight ASXV43

  • Submitted By: Krzysztof H. Blaszkow
  • Departure Airport: Ireland West Airport Knock (EIKN)
  • Arrival Airport: Sligo Airport (EISG)
  • Aircraft: C 172 (SP-OJL)
  • Flight Time: 00.30.53
  • Date Submitted: 03/26/2017
  • Status: Accepted
Flight Details
Gross Revenue:
(3 load / € 400.00 per unit
€ 1,200.00
Fuel Cost:
(9.52544 fuel used @ 0.45 / unit)
€ 4.29

Additional Log Information:

View Log

[19:35] - Cessna Skyhawk 172SP Paint1
[19:35] - Flight ASXV43 is ready to depart EIKN with a final destination of EISG.
[19:35] - Parking Brake Applied
[19:35] - Beacon Light ON
[19:35] - Boarding
[19:35] - ADF1 - 384.0
[19:35] - ADF2 - 240.0
[19:35] - NAV1 - 113.70
[19:35] - NAV2 - 110.60
[19:35] - COM1 - 128.30
[19:35] - COM2 - 127.80
[19:35] - Transponder - 7000
[19:36] - COM1 - 122.80
[19:36] - NAV1 - 117.40
[19:37] - ADF1 - 398.0
[19:38] - Engine 1 Started
[19:38] - Taxi Lights ON 3AGL
[19:38] - Navigation Lights ON 3AGL
[19:38] - Parking Brake Released
[19:39] - Taxiing to Runway
[19:40] - Strobe Lights ON 3AGL
[19:40] - Landing Lights ON 3AGL
[19:40] - Taxi Lights OFF 3AGL
[19:41] - Flaps to position 1
[19:41] - Taking Off with 3 passengers on board
[19:42] - Take off at 82kts, with a pitch of 2deg and 93lbs of fuel on board
[19:42] - Wind Heading 87 | Wind Speed 9kts | Temperature 12 deg C
[19:42] - METAR Departure: EIKN 261830Z 10011KT 070V140 CAVOK 11/03 Q1021 NOSIG

[19:42] - Flaps to position 0 at 689ft and 84kts
[19:42] - Climbing to TOC
[19:43] - TOC reached
[19:43] - Cruise started
[19:45] - ADF1 - 384.0
[19:55] - Instrument Lights ON 509AGL
[19:56] - Flaps to position 1 at 341ft and 110kts
[19:57] - Landed at -24fpm. With 77lbs of fuel onboard and a pitch angle of 0deg.
[19:57] - Wind Heading 85 | Wind Speed 12kts | Temperature 12 deg C
[19:57] - METAR Arrival: EISG 261200Z VRB04KT CAVOK 16/M01 Q1025

[19:57] - Flaps to position 0 at 49ft and 83kts
[20:00] - Flaps to position 1 at 285ft and 106kts
[20:00] - Flaps to position 2 at 282ft and 106kts
[20:01] - Flaps to position 3 at 69ft and 76kts
[20:01] - Flaps to position 1
[20:01] - Flaps to position 0
[20:02] - Taxiing to Gate
[20:03] - Landing Lights OFF 3AGL
[20:03] - Strobe Lights OFF 3AGL
[20:03] - Taxi Lights ON 3AGL
[20:04] - Parking Brake Applied
[20:04] - Arrived safely at EISG. We hope you enjoyed your flight!
[20:04] - Engine 1 Stopped
[20:04] - Taxi Lights OFF 3AGL
[20:04] - Navigation Lights OFF 3AGL
[20:05] - Instrument Lights OFF 3AGL
[20:06] - Cessna Skyhawk 172SP Paint1
[20:06] - MaxSim Rate: 1x
[20:06] - SiouxAcars ver: 1.0.1.2

Comments

Commenter Comment
Krzysztof H. Blaszkow mood na zwiedzanie okolic ;)

Route Map